sensor_id;sensor_type;location;lat;lon;timestamp;temperature;humidity
19263;DHT22;9765;52.354;20.884;2023-02-20T07:25:34;3.10;99.90
19263;DHT22;9765;52.354;20.884;2023-02-20T07:28:01;3.10;99.90
19263;DHT22;9765;52.354;20.884;2023-02-20T07:30:33;4.00;99.90
19263;DHT22;9765;52.354;20.884;2023-02-20T07:33:01;3.20;99.90
19263;DHT22;9765;52.354;20.884;2023-02-20T07:35:28;3.20;99.90
19263;DHT22;9765;52.354;20.884;2023-02-20T07:37:55;4.00;99.90
19263;DHT22;9765;52.354;20.884;2023-02-20T07:40:23;3.60;99.90
19263;DHT22;9765;52.354;20.884;2023-02-20T07:42:55;3.30;99.90
19263;DHT22;9765;52.354;20.884;2023-02-20T07:45:27;4.20;99.90
19263;DHT22;9765;52.354;20.884;2023-02-20T07:47:58;3.40;99.90
19263;DHT22;9765;52.354;20.884;2023-02-20T07:50:25;3.70;99.90
19263;DHT22;9765;52.354;20.884;2023-02-20T07:52:53;3.80;99.90
19263;DHT22;9765;52.354;20.884;2023-02-20T07:55:20;3.60;99.90
19263;DHT22;9765;52.354;20.884;2023-02-20T07:57:48;3.70;99.90
19263;DHT22;9765;52.354;20.884;2023-02-20T08:00:26;4.50;99.90
19263;DHT22;9765;52.354;20.884;2023-02-20T08:02:53;3.70;99.90
19263;DHT22;9765;52.354;20.884;2023-02-20T08:05:30;3.70;99.90
19263;DHT22;9765;52.354;20.884;2023-02-20T08:07:57;3.30;99.90
19263;DHT22;9765;52.354;20.884;2023-02-20T08:10:27;4.50;99.90
19263;DHT22;9765;52.354;20.884;2023-02-20T08:12:56;3.10;99.90
19263;DHT22;9765;52.354;20.884;2023-02-20T08:15:25;4.70;99.90
19263;DHT22;9765;52.354;20.884;2023-02-20T08:18:00;3.90;99.90
19263;DHT22;9765;52.354;20.884;2023-02-20T08:20:28;3.80;99.90
19263;DHT22;9765;52.354;20.884;2023-02-20T08:22:55;4.40;99.90
19263;DHT22;9765;52.354;20.884;2023-02-20T08:25:28;4.80;99.90
19263;DHT22;9765;52.354;20.884;2023-02-20T08:27:59;3.90;99.90
19263;DHT22;9765;52.354;20.884;2023-02-20T08:54:12;3.70;99.90
19263;DHT22;9765;52.354;20.884;2023-02-20T08:56:49;4.40;99.90
19263;DHT22;9765;52.354;20.884;2023-02-20T08:59:17;3.80;99.90
19263;DHT22;9765;52.354;20.884;2023-02-20T09:01:47;3.60;99.90
19263;DHT22;9765;52.354;20.884;2023-02-20T09:04:20;2.90;99.90
19263;DHT22;9765;52.354;20.884;2023-02-20T09:06:54;3.20;99.90
19263;DHT22;9765;52.354;20.884;2023-02-20T09:09:38;4.20;99.90
19263;DHT22;9765;52.354;20.884;2023-02-20T09:12:19;3.70;99.90
19263;DHT22;9765;52.354;20.884;2023-02-20T09:15:01;3.30;99.90
19263;DHT22;9765;52.354;20.884;2023-02-20T09:17:33;3.90;99.90
19263;DHT22;9765;52.354;20.884;2023-02-20T09:20:34;3.50;99.90
19263;DHT22;9765;52.354;20.884;2023-02-20T09:23:23;2.50;99.90
19263;DHT22;9765;52.354;20.884;2023-02-20T09:26:05;3.60;99.90
19263;DHT22;9765;52.354;20.884;2023-02-20T09:38:06;2.90;99.90
19263;DHT22;9765;52.354;20.884;2023-02-20T09:40:37;2.90;99.90
19263;DHT22;9765;52.354;20.884;2023-02-20T09:43:40;3.70;99.90
19263;DHT22;9765;52.354;20.884;2023-02-20T09:46:18;2.90;99.90
19263;DHT22;9765;52.354;20.884;2023-02-20T09:48:55;2.90;99.90
19263;DHT22;9765;52.354;20.884;2023-02-20T09:51:30;2.90;99.90
19263;DHT22;9765;52.354;20.884;2023-02-20T09:54:02;3.50;99.90
19263;DHT22;9765;52.354;20.884;2023-02-20T09:56:39;3.50;99.90
19263;DHT22;9765;52.354;20.884;2023-02-20T09:59:15;3.40;99.90
19263;DHT22;9765;52.354;20.884;2023-02-20T10:01:55;3.60;99.90
19263;DHT22;9765;52.354;20.884;2023-02-20T10:04:32;3.60;99.90
19263;DHT22;9765;52.354;20.884;2023-02-20T10:07:12;2.80;99.90
19263;DHT22;9765;52.354;20.884;2023-02-20T10:09:42;2.50;99.90
19263;DHT22;9765;52.354;20.884;2023-02-20T10:12:19;3.50;99.90
19263;DHT22;9765;52.354;20.884;2023-02-20T10:15:02;3.50;99.90
19263;DHT22;9765;52.354;20.884;2023-02-20T10:17:37;2.70;99.90
19263;DHT22;9765;52.354;20.884;2023-02-20T10:20:24;3.40;99.90
19263;DHT22;9765;52.354;20.884;2023-02-20T10:23:09;3.30;99.90
19263;DHT22;9765;52.354;20.884;2023-02-20T10:25:52;2.90;99.90
19263;DHT22;9765;52.354;20.884;2023-02-20T10:28:22;2.70;99.90
19263;DHT22;9765;52.354;20.884;2023-02-20T10:30:58;1.90;99.90
19263;DHT22;9765;52.354;20.884;2023-02-20T10:33:32;2.60;99.90
19263;DHT22;9765;52.354;20.884;2023-02-20T10:36:11;3.10;99.90
19263;DHT22;9765;52.354;20.884;2023-02-20T10:38:45;3.40;99.90
19263;DHT22;9765;52.354;20.884;2023-02-20T10:41:18;2.60;99.90
19263;DHT22;9765;52.354;20.884;2023-02-20T10:43:50;3.10;99.90
19263;DHT22;9765;52.354;20.884;2023-02-20T10:46:28;3.20;99.90
19263;DHT22;9765;52.354;20.884;2023-02-20T10:49:00;3.00;99.90
19263;DHT22;9765;52.354;20.884;2023-02-20T10:51:41;3.30;99.90
19263;DHT22;9765;52.354;20.884;2023-02-20T10:54:17;2.70;99.90
19263;DHT22;9765;52.354;20.884;2023-02-20T10:56:55;3.50;99.90
19263;DHT22;9765;52.354;20.884;2023-02-20T10:59:29;2.70;99.90
19263;DHT22;9765;52.354;20.884;2023-02-20T11:02:02;2.70;99.90
19263;DHT22;9765;52.354;20.884;2023-02-20T11:04:38;3.60;99.90
19263;DHT22;9765;52.354;20.884;2023-02-20T11:07:15;2.30;99.90
19263;DHT22;9765;52.354;20.884;2023-02-20T11:09:49;3.00;99.90
19263;DHT22;9765;52.354;20.884;2023-02-20T11:12:24;2.90;99.90
19263;DHT22;9765;52.354;20.884;2023-02-20T11:14:58;3.40;99.90
19263;DHT22;9765;52.354;20.884;2023-02-20T11:17:29;2.60;99.90
19263;DHT22;9765;52.354;20.884;2023-02-20T11:20:05;3.40;99.90
19263;DHT22;9765;52.354;20.884;2023-02-20T11:22:43;2.60;99.90
19263;DHT22;9765;52.354;20.884;2023-02-20T11:25:18;3.00;99.90
19263;DHT22;9765;52.354;20.884;2023-02-20T11:27:51;2.60;99.90
19263;DHT22;9765;52.354;20.884;2023-02-20T11:30:30;2.60;99.90
19263;DHT22;9765;52.354;20.884;2023-02-20T11:33:04;2.80;99.90
19263;DHT22;9765;52.354;20.884;2023-02-20T11:35:38;2.70;99.90
19263;DHT22;9765;52.354;20.884;2023-02-20T11:44:41;2.50;99.90
19263;DHT22;9765;52.354;20.884;2023-02-20T11:47:24;2.80;99.90
19263;DHT22;9765;52.354;20.884;2023-02-20T12:03:12;3.60;99.90
19263;DHT22;9765;52.354;20.884;2023-02-20T12:05:43;3.30;99.90
19263;DHT22;9765;52.354;20.884;2023-02-20T12:08:38;3.50;99.90
19263;DHT22;9765;52.354;20.884;2023-02-20T12:11:14;3.40;99.90
19263;DHT22;9765;52.354;20.884;2023-02-20T12:13:43;4.40;99.90
19263;DHT22;9765;52.354;20.884;2023-02-20T12:16:49;3.90;99.90
19263;DHT22;9765;52.354;20.884;2023-02-20T12:22:48;4.10;99.90
19263;DHT22;9765;52.354;20.884;2023-02-20T12:26:29;3.80;99.90
19263;DHT22;9765;52.354;20.884;2023-02-20T12:28:56;3.80;99.90
19263;DHT22;9765;52.354;20.884;2023-02-20T12:32:19;3.40;99.90
19263;DHT22;9765;52.354;20.884;2023-02-20T12:35:44;3.70;99.90
19263;DHT22;9765;52.354;20.884;2023-02-20T12:45:34;4.40;99.90
19263;DHT22;9765;52.354;20.884;2023-02-20T12:48:20;4.50;99.90
19263;DHT22;9765;52.354;20.884;2023-02-20T12:51:10;4.50;99.90
19263;DHT22;9765;52.354;20.884;2023-02-20T12:54:02;4.60;99.90
19263;DHT22;9765;52.354;20.884;2023-02-20T12:56:56;5.20;99.90
19263;DHT22;9765;52.354;20.884;2023-02-20T12:59:28;4.70;99.90
19263;DHT22;9765;52.354;20.884;2023-02-20T13:02:22;5.60;99.90
19263;DHT22;9765;52.354;20.884;2023-02-20T13:04:58;5.30;99.90
19263;DHT22;9765;52.354;20.884;2023-02-20T13:07:36;5.20;99.90
19263;DHT22;9765;52.354;20.884;2023-02-20T13:11:03;5.20;99.90
19263;DHT22;9765;52.354;20.884;2023-02-20T13:13:35;5.40;99.90
19263;DHT22;9765;52.354;20.884;2023-02-20T13:16:25;6.00;99.90
19263;DHT22;9765;52.354;20.884;2023-02-20T13:19:01;6.10;99.90
19263;DHT22;9765;52.354;20.884;2023-02-20T13:21:47;5.20;99.90
19263;DHT22;9765;52.354;20.884;2023-02-20T13:24:34;5.70;99.90
19263;DHT22;9765;52.354;20.884;2023-02-20T13:27:32;6.50;99.90
19263;DHT22;9765;52.354;20.884;2023-02-20T13:30:27;5.80;99.90
19263;DHT22;9765;52.354;20.884;2023-02-20T13:33:27;5.90;99.90
19263;DHT22;9765;52.354;20.884;2023-02-20T13:35:58;6.40;99.90
19263;DHT22;9765;52.354;20.884;2023-02-20T13:38:30;5.90;99.90
19263;DHT22;9765;52.354;20.884;2023-02-20T13:41:11;6.80;99.90
19263;DHT22;9765;52.354;20.884;2023-02-20T13:43:41;6.40;99.90
19263;DHT22;9765;52.354;20.884;2023-02-20T13:46:28;6.00;99.90
